Time;durP1;ratioP1;P1;durP2;ratioP2;P2;SDS_P1;SDS_P2;PMS_P1;PMS_P2;Temp;Humidity;BMP_temperature;BMP_pressure;BME280_temperature;BME280_humidity;BME280_pressure;Samples;Min_cycle;Max_cycle;Signal;HPM_P1;HPM_P2
2023/06/05 00:01:17;;;;;;;1.80;1.65;;;11.70;1.00;12.30;94291.00;;;;7389455;19;20172;-79
2023/06/05 00:03:53;;;;;;;2.42;1.83;;;11.60;1.00;12.20;94267.00;;;;7387141;19;20147;-78
2023/06/05 00:06:27;;;;;;;3.13;1.80;;;11.50;1.00;12.30;94260.00;;;;7384406;19;20652;-79
2023/06/05 00:09:01;;;;;;;2.13;1.70;;;11.50;1.00;12.30;94292.00;;;;7389340;19;20136;-79
2023/06/05 00:11:35;;;;;;;2.97;2.05;;;11.40;1.00;12.20;94299.00;;;;7387809;19;20177;-79
2023/06/05 00:14:09;;;;;;;2.88;1.80;;;11.30;1.00;12.10;94279.00;;;;7389082;19;20132;-79
2023/06/05 00:16:36;;;;;;;3.75;1.70;;;11.30;1.00;12.20;94291.00;;;;7389289;19;20581;-78
2023/06/05 00:19:11;;;;;;;2.47;1.98;;;11.20;1.00;12.20;94291.00;;;;7386808;19;20149;-79
2023/06/05 00:21:45;;;;;;;4.15;1.90;;;11.20;1.00;12.20;94296.00;;;;7387246;19;20133;-78
2023/06/05 00:24:19;;;;;;;2.67;1.80;;;11.20;1.00;12.20;94277.00;;;;7389233;19;20129;-79
2023/06/05 00:26:47;;;;;;;8.02;2.10;;;11.20;1.00;12.10;94295.00;;;;7389319;19;20124;-78
2023/06/05 00:29:22;;;;;;;2.72;1.85;;;11.20;1.00;12.00;94284.00;;;;7385589;19;20164;-79
2023/06/05 00:31:49;;;;;;;3.75;2.10;;;11.20;1.00;12.00;94271.00;;;;7387612;19;20145;-79
2023/06/05 00:34:23;;;;;;;2.30;1.80;;;11.10;1.00;12.00;94279.00;;;;7384009;19;20125;-79
2023/06/05 00:36:58;;;;;;;3.33;1.93;;;11.10;1.00;11.80;94258.00;;;;7386697;19;20173;-79
2023/06/05 00:39:31;;;;;;;2.57;2.10;;;11.10;1.00;11.80;94279.00;;;;7390814;19;20167;-79
2023/06/05 00:41:58;;;;;;;2.97;2.07;;;11.00;1.00;11.90;94275.00;;;;7384668;19;20474;-79
2023/06/05 00:44:32;;;;;;;3.20;2.10;;;11.00;1.00;11.90;94275.00;;;;7388985;19;20144;-79
2023/06/05 00:47:00;;;;;;;2.17;1.77;;;11.10;1.00;11.70;94278.00;;;;7387664;19;20117;-79
2023/06/05 00:49:34;;;;;;;2.60;2.00;;;11.10;1.00;11.70;94280.00;;;;7383514;19;20155;-79
2023/06/05 00:52:08;;;;;;;2.30;1.80;;;11.00;1.00;11.80;94278.00;;;;7387817;19;20574;-79
2023/06/05 00:54:43;;;;;;;6.77;2.03;;;10.90;1.00;11.70;94263.00;;;;7388420;19;20151;-79
2023/06/05 00:57:12;;;;;;;2.50;1.98;;;10.90;1.00;11.60;94279.00;;;;7385756;19;20483;-79
2023/06/05 00:59:49;;;;;;;2.45;1.80;;;10.90;1.00;11.50;94278.00;;;;7387336;19;20138;-80
2023/06/05 01:02:16;;;;;;;2.58;1.80;;;10.80;1.00;11.70;94226.00;;;;7391732;19;20255;-94
2023/06/05 01:04:58;;;;;;;3.13;1.83;;;10.70;1.00;11.70;94253.00;;;;7396715;19;20144;-93
2023/06/05 01:07:27;;;;;;;3.07;1.90;;;10.70;1.00;11.60;94285.00;;;;7398899;19;20170;-93
2023/06/05 01:10:06;;;;;;;3.25;2.00;;;10.70;1.00;11.50;94283.00;;;;7397286;19;20149;-93
2023/06/05 01:13:03;;;;;;;3.60;1.97;;;10.60;1.00;11.50;94283.00;;;;7397446;19;20151;-94
2023/06/05 01:15:38;;;;;;;2.37;2.00;;;10.50;1.00;11.50;94234.00;;;;7401143;19;20132;-92
2023/06/05 01:18:13;;;;;;;2.47;1.87;;;10.50;1.00;11.50;94269.00;;;;7399520;19;20458;-93
2023/06/05 01:20:47;;;;;;;3.37;2.00;;;10.50;1.00;11.40;94229.00;;;;7398643;19;20610;-93
2023/06/05 01:23:14;;;;;;;3.73;1.70;;;10.50;1.00;11.40;94242.00;;;;7397586;19;20144;-93
2023/06/05 01:25:48;;;;;;;2.90;1.93;;;10.50;1.00;11.30;94238.00;;;;7397968;19;20149;-93
2023/06/05 01:28:28;;;;;;;3.67;1.97;;;10.50;1.00;11.30;94253.00;;;;7398818;19;20144;-93
2023/06/05 01:31:16;;;;;;;3.03;2.00;;;10.40;1.00;11.30;94227.00;;;;7400082;19;20466;-91
2023/06/05 01:34:01;;;;;;;3.73;1.97;;;10.50;1.00;11.10;94269.00;;;;7398672;19;20201;-93
2023/06/05 01:36:36;;;;;;;2.80;1.80;;;10.40;1.00;11.10;94239.00;;;;7399318;19;20519;-94
2023/06/05 01:39:12;;;;;;;2.73;2.00;;;10.40;1.00;11.10;94280.00;;;;7399014;19;20577;-94
2023/06/05 01:41:49;;;;;;;2.20;1.90;;;10.40;1.00;11.20;94217.00;;;;7401113;19;20193;-93
2023/06/05 01:44:18;;;;;;;2.30;1.63;;;10.40;1.00;11.30;94217.00;;;;7398241;19;21129;-93
2023/06/05 01:46:51;;;;;;;3.50;2.00;;;10.40;1.00;11.20;94259.00;;;;7400404;19;20128;-93
2023/06/05 01:49:21;;;;;;;3.28;2.05;;;10.40;1.00;11.20;94255.00;;;;7397828;19;20145;-93
2023/06/05 01:51:55;;;;;;;3.95;1.90;;;10.40;1.00;11.10;94230.00;;;;7399326;19;20154;-92
2023/06/05 01:54:23;;;;;;;3.20;1.80;;;10.40;1.00;11.00;94225.00;;;;7404394;19;20565;-93
2023/06/05 01:56:58;;;;;;;4.13;2.00;;;10.30;1.00;11.00;94264.00;;;;7402417;19;20151;-93
2023/06/05 01:59:33;;;;;;;3.47;2.10;;;10.30;1.00;10.90;94232.00;;;;7403409;19;20147;-93
2023/06/05 02:02:07;;;;;;;8.87;2.20;;;10.20;1.00;11.00;94172.00;;;;7398817;19;20201;-93
2023/06/05 02:04:53;;;;;;;2.50;1.83;;;10.20;1.00;11.30;94234.00;;;;7403228;19;20198;-93
2023/06/05 02:07:21;;;;;;;6.17;2.37;;;10.20;1.00;11.20;94242.00;;;;7401710;19;20145;-93
2023/06/05 02:10:02;;;;;;;4.53;1.93;;;10.20;1.00;11.00;94219.00;;;;7397080;19;21118;-93
2023/06/05 02:12:37;;;;;;;3.57;1.90;;;10.20;1.00;11.00;94211.00;;;;7400704;19;20151;-94
2023/06/05 02:15:12;;;;;;;3.00;1.97;;;10.10;1.00;11.00;94244.00;;;;7402622;19;20162;-92
2023/06/05 02:17:52;;;;;;;4.60;2.27;;;10.10;1.00;11.00;94260.00;;;;7400598;19;20642;-93
2023/06/05 02:20:28;;;;;;;5.67;1.90;;;10.10;1.00;11.20;94265.00;;;;7400955;19;20139;-93
2023/06/05 02:22:55;;;;;;;3.73;2.23;;;10.10;1.00;11.40;94219.00;;;;7401415;19;20174;-93
2023/06/05 02:25:30;;;;;;;4.00;2.50;;;10.10;1.00;11.20;94241.00;;;;7400798;19;20175;-93
2023/06/05 02:28:05;;;;;;;4.23;2.17;;;10.20;1.00;11.20;94240.00;;;;7400771;19;20120;-93
2023/06/05 02:30:32;;;;;;;3.63;1.90;;;10.20;1.00;11.00;94255.00;;;;7400403;19;20145;-94
2023/06/05 02:33:08;;;;;;;5.77;2.10;;;10.20;1.00;10.90;94210.00;;;;7402414;19;20162;-93
2023/06/05 02:35:42;;;;;;;3.30;2.33;;;10.20;1.00;10.90;94229.00;;;;7400306;19;20637;-93
2023/06/05 02:38:12;;;;;;;4.13;2.40;;;10.10;1.00;10.80;94246.00;;;;7399830;19;20137;-93
2023/06/05 02:40:46;;;;;;;4.17;2.40;;;10.10;1.00;10.70;94256.00;;;;7402208;19;20178;-94
2023/06/05 02:43:21;;;;;;;4.07;2.30;;;10.10;1.00;10.70;94219.00;;;;7400747;19;20151;-93
2023/06/05 02:45:49;;;;;;;3.17;2.23;;;10.10;1.00;10.80;94250.00;;;;7400568;19;20148;-92
2023/06/05 02:48:22;;;;;;;4.40;2.10;;;10.00;1.00;10.70;94271.00;;;;7401251;19;20137;-93
2023/06/05 02:50:51;;;;;;;2.33;1.73;;;10.00;1.00;10.70;94271.00;;;;7398080;19;20145;-94
2023/06/05 02:53:25;;;;;;;4.67;2.07;;;9.80;1.00;10.80;94194.00;;;;7405641;19;20120;-93
2023/06/05 02:56:01;;;;;;;6.03;2.00;;;9.80;1.00;10.80;94254.00;;;;7406228;19;20159;-93
2023/06/05 02:58:35;;;;;;;4.90;2.30;;;9.80;1.00;10.80;94233.00;;;;7418494;19;20121;-94
2023/06/05 03:01:10;;;;;;;2.67;2.10;;;9.80;1.00;10.70;94208.00;;;;7418008;19;20204;-93
2023/06/05 03:03:52;;;;;;;4.63;2.27;;;9.80;1.00;10.60;94216.00;;;;7418534;19;20133;-94
2023/06/05 03:06:27;;;;;;;7.47;2.40;;;9.80;1.00;10.70;94217.00;;;;7419050;19;20143;-94
2023/06/05 03:09:01;;;;;;;4.50;2.30;;;9.70;1.00;10.80;94257.00;;;;7416093;19;21137;-94
2023/06/05 03:11:28;;;;;;;4.13;2.30;;;9.70;1.00;10.90;94195.00;;;;7417245;19;20162;-92
2023/06/05 03:14:02;;;;;;;3.50;2.37;;;9.80;1.00;11.00;94205.00;;;;7416727;19;20171;-93
2023/06/05 03:16:34;;;;;;;3.17;2.13;;;9.80;1.00;10.80;94245.00;;;;7414665;19;20855;-93
2023/06/05 03:19:10;;;;;;;3.83;2.40;;;9.80;1.00;10.80;94221.00;;;;7410557;19;20174;-93
2023/06/05 03:21:44;;;;;;;2.53;2.10;;;9.80;1.00;10.70;94205.00;;;;7396794;19;20136;-93
2023/06/05 03:24:14;;;;;;;3.63;2.00;;;9.80;1.00;10.70;94253.00;;;;7395753;19;20149;-92
2023/06/05 03:26:48;;;;;;;6.80;2.33;;;9.80;1.00;10.70;94178.00;;;;7398587;19;20465;-93
2023/06/05 03:29:18;;;;;;;5.90;2.40;;;9.70;1.00;10.70;94233.00;;;;7393077;19;20148;-93
2023/06/05 03:31:53;;;;;;;5.23;2.63;;;9.70;1.00;10.80;94265.00;;;;7392891;19;20152;-89
2023/06/05 03:34:29;;;;;;;5.63;2.87;;;9.70;1.00;10.80;94229.00;;;;7393588;19;20128;-90
2023/06/05 03:37:04;;;;;;;4.97;3.37;;;9.70;1.00;10.90;94262.00;;;;7394137;19;20259;-91
2023/06/05 03:39:31;;;;;;;4.57;2.40;;;9.80;1.00;11.00;94196.00;;;;7391005;19;20156;-91
2023/06/05 03:42:09;;;;;;;3.67;2.40;;;9.90;1.00;11.10;94186.00;;;;7388273;19;20156;-90
2023/06/05 03:44:48;;;;;;;3.30;2.40;;;10.00;1.00;11.00;94234.00;;;;7390623;19;20151;-90
2023/06/05 03:47:28;;;;;;;6.47;2.50;;;10.00;1.00;11.10;94193.00;;;;7389755;19;20137;-89
2023/06/05 03:50:03;;;;;;;3.43;2.63;;;10.10;1.00;11.20;94249.00;;;;7390624;19;20149;-89
2023/06/05 03:52:37;;;;;;;4.20;2.30;;;10.10;1.00;11.10;94221.00;;;;7391617;19;21333;-93
2023/06/05 03:55:16;;;;;;;5.67;2.23;;;10.10;1.00;11.10;94252.00;;;;7393543;19;20170;-92
2023/06/05 03:57:43;;;;;;;6.17;2.57;;;10.10;1.00;11.20;94202.00;;;;7394437;19;20158;-91
2023/06/05 04:00:17;;;;;;;4.03;2.60;;;10.20;1.00;11.20;94178.00;;;;7390789;19;20178;-88
2023/06/05 04:02:51;;;;;;;2.77;2.20;;;10.20;1.00;11.30;94219.00;;;;7387622;19;20172;-91
2023/06/05 04:05:34;;;;;;;4.60;2.90;;;10.30;1.00;11.40;94232.00;;;;7393118;19;20469;-92
2023/06/05 04:08:02;;;;;;;3.43;2.40;;;10.40;1.00;11.50;94252.00;;;;7394958;19;20914;-90
2023/06/05 04:10:37;;;;;;;4.97;2.30;;;10.50;1.00;11.50;94221.00;;;;7397548;19;20144;-92
2023/06/05 04:13:11;;;;;;;3.65;2.42;;;10.50;1.00;11.60;94202.00;;;;7398965;19;20152;-91
2023/06/05 04:15:45;;;;;;;4.10;2.70;;;10.60;1.00;11.70;94218.00;;;;7397674;19;20133;-91
2023/06/05 04:18:20;;;;;;;6.20;3.83;;;10.60;1.00;11.70;94222.00;;;;7401118;19;20148;-91
2023/06/05 04:20:53;;;;;;;3.73;2.67;;;10.60;1.00;11.80;94198.00;;;;7401190;19;20188;-91
2023/06/05 04:23:27;;;;;;;5.20;2.90;;;10.70;1.00;11.80;94224.00;;;;7399845;19;20149;-91
2023/06/05 04:25:54;;;;;;;4.60;2.17;;;10.70;1.00;11.90;94209.00;;;;7403423;19;20586;-91
2023/06/05 04:28:29;;;;;;;4.20;2.40;;;10.80;1.00;12.00;94246.00;;;;7401140;19;20886;-91
2023/06/05 04:31:03;;;;;;;8.43;2.50;;;10.80;1.00;12.10;94259.00;;;;7397869;19;20157;-89
2023/06/05 04:33:38;;;;;;;4.07;2.73;;;10.90;1.00;12.10;94249.00;;;;7402684;19;20139;-89
2023/06/05 04:36:11;;;;;;;2.53;2.23;;;11.00;1.00;12.20;94245.00;;;;7403100;19;20129;-90
2023/06/05 04:38:45;;;;;;;5.83;2.60;;;11.00;1.00;12.30;94203.00;;;;7400744;19;20152;-91
2023/06/05 04:41:21;;;;;;;6.18;2.50;;;11.10;1.00;12.40;94230.00;;;;7402244;19;20137;-90
2023/06/05 04:43:57;;;;;;;5.80;2.85;;;11.20;1.00;12.50;94211.00;;;;7400695;19;20140;-91
2023/06/05 04:46:30;;;;;;;3.65;2.85;;;11.30;1.00;12.50;94213.00;;;;7405541;19;20129;-91
2023/06/05 04:49:06;;;;;;;5.97;2.75;;;11.40;1.00;12.80;94244.00;;;;7399666;19;20165;-89
2023/06/05 04:51:40;;;;;;;4.15;2.92;;;11.40;1.00;13.10;94244.00;;;;7399288;19;21425;-91
2023/06/05 04:54:14;;;;;;;3.88;2.50;;;11.60;1.00;13.50;94222.00;;;;7397428;19;20140;-90
2023/06/05 04:56:49;;;;;;;3.72;2.50;;;11.80;1.00;13.70;94253.00;;;;7395646;19;20144;-91
2023/06/05 04:59:23;;;;;;;2.97;2.47;;;12.10;1.00;13.70;94238.00;;;;7398791;19;20543;-91
2023/06/05 05:01:50;;;;;;;3.92;2.53;;;12.30;1.00;13.90;94228.00;;;;7395983;19;20619;-91
2023/06/05 05:04:24;;;;;;;6.43;2.78;;;12.50;1.00;14.20;94215.00;;;;7397652;19;20141;-92
2023/06/05 05:06:52;;;;;;;4.50;2.75;;;12.70;1.00;14.30;94226.00;;;;7397891;19;20468;-91
2023/06/05 05:09:28;;;;;;;4.63;2.58;;;12.90;1.00;14.40;94183.00;;;;7399623;19;20125;-91
2023/06/05 05:12:02;;;;;;;3.55;2.40;;;13.10;1.00;14.60;94203.00;;;;7401163;19;20204;-90
2023/06/05 05:14:30;;;;;;;3.80;2.70;;;13.20;1.00;14.80;94215.00;;;;7399220;19;20579;-92
2023/06/05 05:17:06;;;;;;;4.97;2.50;;;13.40;1.00;14.90;94216.00;;;;7396612;19;20141;-92
2023/06/05 05:19:33;;;;;;;7.32;2.38;;;13.60;1.00;15.10;94224.00;;;;7396271;19;20504;-91
2023/06/05 05:22:07;;;;;;;6.28;3.28;;;13.80;1.00;15.30;94198.00;;;;7397264;19;20244;-92
2023/06/05 05:24:35;;;;;;;3.88;2.75;;;13.90;1.00;15.50;94250.00;;;;7396038;19;20148;-92
2023/06/05 05:27:08;;;;;;;2.85;2.50;;;14.10;1.00;15.60;94208.00;;;;7395936;19;20191;-91
2023/06/05 05:29:35;;;;;;;8.00;3.20;;;14.20;1.00;15.70;94216.00;;;;7395561;19;20136;-91
2023/06/05 05:32:10;;;;;;;4.43;2.85;;;14.40;1.00;15.90;94270.00;;;;7394768;19;20615;-91
2023/06/05 05:34:44;;;;;;;5.15;2.42;;;14.60;1.00;15.90;94273.00;;;;7395507;19;20134;-91
2023/06/05 05:37:18;;;;;;;4.55;2.80;;;14.70;1.00;15.90;94247.00;;;;7396166;19;20159;-92
2023/06/05 05:39:52;;;;;;;3.40;2.50;;;14.80;1.00;16.00;94256.00;;;;7396619;19;20148;-88
2023/06/05 05:42:19;;;;;;;2.78;2.45;;;14.90;1.00;16.10;94234.00;;;;7396950;19;20576;-89
2023/06/05 05:44:53;;;;;;;3.33;2.47;;;15.00;1.00;16.00;94229.00;;;;7397000;19;20132;-89
2023/06/05 05:47:20;;;;;;;3.58;2.58;;;15.10;1.00;16.20;94247.00;;;;7395414;19;20149;-87
2023/06/05 05:49:47;;;;;;;3.08;2.60;;;15.20;1.00;16.40;94233.00;;;;7398560;19;20647;-88
2023/06/05 05:52:22;;;;;;;2.90;2.60;;;15.40;1.00;16.60;94234.00;;;;7399896;19;20136;-89
2023/06/05 05:54:50;;;;;;;3.17;2.30;;;15.60;1.00;17.00;94241.00;;;;7398178;19;20141;-88
2023/06/05 05:57:24;;;;;;;5.40;2.63;;;16.00;1.00;17.30;94269.00;;;;7396492;19;20145;-89
2023/06/05 05:59:52;;;;;;;4.00;2.55;;;16.50;1.00;17.60;94221.00;;;;7402380;19;20185;-89
2023/06/05 06:02:32;;;;;;;4.95;2.75;;;17.10;1.00;17.80;94263.00;;;;7395405;19;20175;-89
2023/06/05 06:05:07;;;;;;;2.75;2.35;;;17.60;1.00;18.40;94224.00;;;;7396578;19;20512;-89
2023/06/05 06:07:42;;;;;;;3.63;2.50;;;18.00;1.00;18.60;94213.00;;;;7395290;19;20218;-88
2023/06/05 06:10:11;;;;;;;5.40;2.78;;;18.00;1.00;18.60;94233.00;;;;7395731;19;20152;-90
2023/06/05 06:12:45;;;;;;;2.60;2.40;;;18.10;1.00;18.90;94251.00;;;;7396218;19;20152;-91
2023/06/05 06:15:13;;;;;;;4.93;2.58;;;18.20;1.00;19.20;94237.00;;;;7397854;19;20174;-90
2023/06/05 06:17:47;;;;;;;6.30;2.80;;;18.40;1.00;19.60;94245.00;;;;7397163;19;20179;-90
2023/06/05 06:20:15;;;;;;;3.20;2.58;;;18.40;87.90;19.90;94271.00;;;;7395510;19;20933;-91
2023/06/05 06:22:50;;;;;;;4.45;2.55;;;18.60;1.00;20.10;94263.00;;;;7396493;19;20162;-90
2023/06/05 06:25:21;;;;;;;3.92;2.78;;;18.80;1.00;20.70;94277.00;;;;7393778;19;20120;-91
2023/06/05 06:27:56;;;;;;;3.72;2.60;;;18.90;1.00;21.00;94252.00;;;;7395116;19;20145;-90
2023/06/05 06:30:23;;;;;;;5.07;2.42;;;19.00;1.00;21.40;94248.00;;;;7395511;19;20159;-90
2023/06/05 06:33:00;;;;;;;3.15;2.50;;;19.20;1.00;21.30;94222.00;;;;7392191;19;20178;-90
2023/06/05 06:35:34;;;;;;;2.88;2.33;;;19.40;1.00;22.30;94226.00;;;;7392019;19;20174;-91
2023/06/05 06:38:08;;;;;;;3.08;2.47;;;19.60;1.00;22.60;94253.00;;;;7394930;19;20204;-90
2023/06/05 06:40:43;;;;;;;5.75;2.50;;;19.80;1.00;22.70;94239.00;;;;7394134;19;20140;-90
2023/06/05 06:43:18;;;;;;;4.65;2.55;;;19.90;1.00;22.90;94232.00;;;;7394011;19;20476;-89
2023/06/05 06:45:52;;;;;;;4.90;2.80;;;20.10;1.40;23.30;94234.00;;;;7397519;19;20714;-90
2023/06/05 06:48:20;;;;;;;3.65;3.05;;;20.20;99.90;23.40;94260.00;;;;7397661;19;20534;-88
2023/06/05 06:50:53;;;;;;;3.10;2.50;;;20.20;1.00;23.40;94241.00;;;;7392969;19;20145;-90
2023/06/05 06:53:20;;;;;;;3.35;2.83;;;20.30;1.00;23.50;94259.00;;;;7396356;19;20117;-89
2023/06/05 06:55:55;;;;;;;4.72;2.72;;;20.40;1.00;23.90;94257.00;;;;7393840;19;20125;-89
2023/06/05 06:58:31;;;;;;;5.47;2.80;;;20.40;1.00;23.40;94246.00;;;;7394577;19;20644;-88
2023/06/05 07:01:04;;;;;;;4.95;2.80;;;20.30;1.00;23.00;94267.00;;;;7390902;19;20144;-89
2023/06/05 07:03:44;;;;;;;4.10;2.50;;;20.20;99.90;22.60;94232.00;;;;7391243;19;20638;-88
2023/06/05 07:06:12;;;;;;;3.35;2.80;;;20.20;99.90;22.40;94272.00;;;;7392826;19;20149;-88
2023/06/05 07:08:45;;;;;;;4.45;2.50;;;20.20;99.90;21.50;94239.00;;;;7400694;19;20479;-87
2023/06/05 07:11:13;;;;;;;2.90;2.50;;;20.00;99.90;21.80;94260.00;;;;7392450;19;20486;-89
2023/06/05 07:13:54;;;;;;;5.18;2.50;;;20.00;1.40;21.50;94257.00;;;;7394234;19;20617;-89
2023/06/05 07:16:21;;;;;;;3.63;2.53;;;20.10;1.00;21.50;94284.00;;;;7394194;19;20139;-90
2023/06/05 07:18:55;;;;;;;7.40;2.85;;;20.00;99.90;21.90;94266.00;;;;7392234;19;20141;-89
2023/06/05 07:21:23;;;;;;;3.88;2.92;;;20.10;99.90;21.90;94287.00;;;;7393659;19;20564;-88
2023/06/05 07:23:56;;;;;;;4.25;2.78;;;20.30;99.90;22.20;94245.00;;;;7391775;19;20596;-88
2023/06/05 07:26:31;;;;;;;3.75;2.47;;;20.30;1.00;22.00;94273.00;;;;7391346;19;20152;-90
2023/06/05 07:28:59;;;;;;;8.48;2.90;;;20.30;1.40;22.10;94259.00;;;;7393351;19;20120;-90
2023/06/05 07:31:33;;;;;;;6.30;3.33;;;20.30;1.00;22.10;94262.00;;;;7390143;19;20165;-88
2023/06/05 07:34:01;;;;;;;5.55;2.58;;;20.30;1.40;22.40;94254.00;;;;7395642;19;20121;-89
2023/06/05 07:36:36;;;;;;;5.50;2.88;;;20.40;99.90;22.70;94254.00;;;;7394953;19;20176;-92
2023/06/05 07:39:03;;;;;;;4.10;2.80;;;20.60;99.90;22.40;94271.00;;;;7394322;19;20138;-92
2023/06/05 07:41:39;;;;;;;4.28;2.80;;;20.70;1.40;22.40;94229.00;;;;7394379;19;20162;-92
2023/06/05 07:44:16;;;;;;;3.65;2.70;;;20.70;99.90;22.60;94264.00;;;;7400803;19;20149;-91
2023/06/05 07:46:51;;;;;;;4.07;2.95;;;20.70;99.90;22.20;94240.00;;;;7400093;19;20131;-91
2023/06/05 07:49:25;;;;;;;3.45;3.00;;;20.70;99.90;22.30;94269.00;;;;7401948;19;20121;-88
2023/06/05 07:52:10;;;;;;;5.35;3.10;;;20.80;99.90;22.50;94267.00;;;;7398301;19;20136;-89
2023/06/05 07:54:44;;;;;;;8.10;2.80;;;20.90;99.90;22.50;94271.00;;;;7399082;19;20155;-91
2023/06/05 07:57:13;;;;;;;5.75;2.88;;;20.90;99.90;22.50;94251.00;;;;7403484;19;20469;-90
2023/06/05 07:59:48;;;;;;;5.60;3.15;;;21.00;99.90;22.60;94284.00;;;;7400509;19;20144;-91
2023/06/05 08:02:29;;;;;;;3.42;2.80;;;21.10;99.90;22.80;94273.00;;;;7398310;19;20183;-91
2023/06/05 08:05:03;;;;;;;3.65;2.60;;;21.20;99.90;22.80;94279.00;;;;7402396;19;20148;-93
2023/06/05 08:07:37;;;;;;;3.15;2.85;;;21.30;99.90;22.60;94275.00;;;;7403681;19;20147;-90
2023/06/05 08:10:06;;;;;;;3.78;3.03;;;21.40;99.90;22.90;94246.00;;;;7400719;19;20129;-88
2023/06/05 08:12:40;;;;;;;3.65;2.65;;;21.50;99.90;23.00;94286.00;;;;7403490;19;20192;-89
2023/06/05 08:15:14;;;;;;;7.13;2.88;;;21.40;99.90;23.10;94254.00;;;;7398013;19;20152;-91
2023/06/05 08:17:41;;;;;;;5.82;3.20;;;21.40;99.90;23.30;94253.00;;;;7395062;19;20149;-91
2023/06/05 08:20:15;;;;;;;4.18;3.00;;;21.30;99.90;22.90;94259.00;;;;7396883;19;20701;-89
2023/06/05 08:22:42;;;;;;;7.95;3.00;;;21.50;99.90;23.40;94277.00;;;;7400385;19;20153;-91
2023/06/05 08:25:16;;;;;;;3.63;2.70;;;21.40;99.90;23.50;94263.00;;;;7393639;19;20522;-89
2023/06/05 08:27:43;;;;;;;6.80;3.00;;;21.60;1.00;23.60;94288.00;;;;7394415;19;20164;-91
2023/06/05 08:30:17;;;;;;;7.38;3.17;;;21.70;99.90;23.80;94254.00;;;;7398075;19;20545;-91
2023/06/05 08:32:51;;;;;;;3.55;2.60;;;21.80;99.90;24.00;94287.00;;;;7396898;19;20141;-89
2023/06/05 08:35:25;;;;;;;6.43;2.85;;;22.10;99.90;23.40;94238.00;;;;7396269;19;20141;-89
2023/06/05 08:37:53;;;;;;;4.35;3.00;;;22.30;99.90;23.70;94272.00;;;;7397640;19;20508;-88
2023/06/05 08:40:28;;;;;;;5.45;2.85;;;22.40;99.90;24.40;94269.00;;;;7400823;19;20129;-89
2023/06/05 08:42:57;;;;;;;6.32;3.13;;;22.50;99.90;24.40;94273.00;;;;7402886;19;20603;-89
2023/06/05 08:45:31;;;;;;;3.00;2.70;;;22.50;99.90;24.60;94263.00;;;;7400827;19;20152;-93
2023/06/05 08:48:03;;;;;;;4.20;2.90;;;22.60;99.90;25.10;94263.00;;;;7400134;19;20148;-89
2023/06/05 08:50:38;;;;;;;6.95;3.20;;;22.60;99.90;25.10;94261.00;;;;7399643;19;20167;-90
2023/06/05 08:53:06;;;;;;;3.40;2.90;;;22.60;99.90;24.20;94249.00;;;;7396188;19;20152;-91
2023/06/05 08:55:43;;;;;;;4.72;3.30;;;22.50;99.90;24.80;94262.00;;;;7393408;19;20144;-90
2023/06/05 08:58:17;;;;;;;5.88;3.70;;;22.50;99.90;24.90;94232.00;;;;7393526;19;20144;-89
2023/06/05 09:00:48;;;;;;;5.80;3.15;;;22.50;99.90;25.20;94279.00;;;;7394357;19;20181;-90
2023/06/05 09:03:29;;;;;;;7.03;3.85;;;22.70;99.90;25.00;94257.00;;;;7394821;19;20145;-89
2023/06/05 09:05:56;;;;;;;10.82;4.25;;;22.90;99.90;24.80;94243.00;;;;7395036;19;20149;-91
2023/06/05 09:08:33;;;;;;;8.10;4.20;;;22.90;99.90;24.90;94278.00;;;;7396518;19;20149;-89
2023/06/05 09:11:30;;;;;;;10.82;4.20;;;23.00;99.90;25.00;94285.00;;;;7391193;19;20153;-91
2023/06/05 09:14:03;;;;;;;7.63;4.75;;;22.90;99.90;25.00;94275.00;;;;7391826;19;20611;-86
2023/06/05 09:16:43;;;;;;;8.00;4.30;;;22.90;99.90;25.30;94284.00;;;;7395134;19;20148;-89
2023/06/05 09:19:19;;;;;;;7.97;4.88;;;22.80;99.90;25.40;94238.00;;;;7390579;19;20167;-89
2023/06/05 09:21:54;;;;;;;7.68;4.50;;;23.10;99.90;25.30;94287.00;;;;7394726;19;20124;-90
2023/06/05 09:24:30;;;;;;;7.60;4.85;;;23.10;99.90;25.40;94267.00;;;;7393705;19;20220;-87
2023/06/05 09:27:08;;;;;;;5.40;4.50;;;23.30;99.90;25.60;94300.00;;;;7393993;19;20132;-89
2023/06/05 09:29:43;;;;;;;7.15;4.55;;;23.20;99.90;25.20;94263.00;;;;7393473;19;20774;-87
2023/06/05 09:32:25;;;;;;;5.72;4.20;;;23.30;99.90;24.80;94278.00;;;;7389645;19;20141;-89
2023/06/05 09:35:03;;;;;;;8.48;4.60;;;23.20;99.90;24.20;94284.00;;;;7390654;19;20155;-87
2023/06/05 09:37:35;;;;;;;6.35;4.38;;;23.10;99.90;24.40;94235.00;;;;7392084;19;20535;-88
2023/06/05 09:40:14;;;;;;;8.52;5.25;;;23.20;99.90;24.80;94231.00;;;;7390892;19;20142;-88
2023/06/05 09:42:48;;;;;;;9.55;4.53;;;23.30;99.90;25.60;94259.00;;;;7391745;19;20149;-89
2023/06/05 09:45:16;;;;;;;5.70;5.10;;;23.20;99.90;25.30;94239.00;;;;7388778;19;20240;-89
2023/06/05 09:47:49;;;;;;;9.70;5.38;;;23.50;99.90;26.20;94303.00;;;;7393181;19;20155;-89
2023/06/05 09:50:24;;;;;;;6.78;5.32;;;23.90;99.90;25.70;94310.00;;;;7391886;19;20483;-86
2023/06/05 09:53:00;;;;;;;14.18;6.00;;;23.90;99.90;25.90;94273.00;;;;7387713;19;20152;-85
2023/06/05 09:55:35;;;;;;;8.23;6.05;;;24.00;99.90;26.60;94237.00;;;;7389372;19;20898;-88
2023/06/05 09:58:14;;;;;;;9.40;5.82;;;24.20;99.90;26.10;94255.00;;;;7389712;19;20159;-89
2023/06/05 10:00:42;;;;;;;8.43;5.75;;;24.80;99.90;26.20;94232.00;;;;7388690;19;20144;-90
2023/06/05 10:03:25;;;;;;;5.70;4.85;;;24.80;99.90;26.70;94244.00;;;;7385254;19;20198;-88
2023/06/05 10:05:58;;;;;;;8.85;5.35;;;25.00;99.90;27.10;94253.00;;;;7388578;19;20125;-90
2023/06/05 10:08:34;;;;;;;8.50;5.40;;;25.00;99.90;27.40;94262.00;;;;7390499;19;20611;-90
2023/06/05 10:11:10;;;;;;;8.13;5.03;;;25.20;99.90;27.50;94211.00;;;;7393383;19;20156;-91
2023/06/05 10:13:37;;;;;;;9.88;6.10;;;25.70;99.90;28.00;94251.00;;;;7397868;19;20151;-92
2023/06/05 10:16:05;;;;;;;9.02;5.38;;;26.10;99.90;27.80;94235.00;;;;7403473;19;20151;-93
2023/06/05 10:18:52;;;;;;;7.90;5.60;;;26.50;99.90;27.90;94283.00;;;;7410896;19;20152;-94
2023/06/05 10:21:21;;;;;;;9.52;5.20;;;26.90;99.90;26.20;94278.00;;;;7400085;19;20140;-94
2023/06/05 10:24:05;;;;;;;6.82;5.13;;;26.60;99.90;26.40;94259.00;;;;7400381;19;20148;-91
2023/06/05 10:27:02;;;;;;;5.43;4.68;;;26.30;99.90;28.00;94246.00;;;;7401313;19;20172;-95
2023/06/05 10:30:06;;;;;;;6.97;5.75;;;26.60;99.90;28.60;94255.00;;;;7409818;19;20148;-96
2023/06/05 10:33:23;;;;;;;5.30;4.80;;;27.30;99.90;28.60;94279.00;;;;7381927;19;20184;-76
2023/06/05 10:36:18;;;;;;;10.10;5.10;;;27.90;99.90;27.70;94278.00;;;;7386225;19;20556;-75
2023/06/05 10:38:53;;;;;;;5.97;4.95;;;27.60;99.90;28.20;94247.00;;;;7386094;19;20998;-77
2023/06/05 10:41:22;;;;;;;6.38;4.70;;;27.60;99.90;28.70;94237.00;;;;7387319;19;20129;-76
2023/06/05 10:43:55;;;;;;;7.25;5.20;;;27.70;99.90;28.40;94247.00;;;;7387605;19;20798;-78
2023/06/05 10:46:26;;;;;;;9.88;5.60;;;27.40;99.90;27.50;94264.00;;;;7390284;19;20544;-78
2023/06/05 10:49:22;;;;;;;11.32;5.45;;;27.00;99.90;27.50;94265.00;;;;7384990;19;21307;-78
2023/06/05 10:51:51;;;;;;;7.63;5.10;;;26.80;99.90;29.00;94240.00;;;;7383620;19;20144;-76
2023/06/05 10:54:25;;;;;;;8.25;5.00;;;27.00;99.90;29.10;94249.00;;;;7387504;19;20155;-80
2023/06/05 10:57:05;;;;;;;8.32;5.20;;;27.40;99.90;29.90;94251.00;;;;7387724;19;20543;-80
2023/06/05 10:59:42;;;;;;;6.30;5.22;;;27.80;99.90;29.80;94241.00;;;;7385899;19;20156;-80
2023/06/05 11:02:15;;;;;;;8.65;4.70;;;28.50;99.90;30.20;94241.00;;;;7382645;19;20166;-76
2023/06/05 11:04:53;;;;;;;6.65;5.00;;;29.10;99.90;30.20;94244.00;;;;7383997;19;20154;-76
2023/06/05 11:07:28;;;;;;;5.32;4.82;;;29.80;99.90;30.60;94232.00;;;;7383668;19;21062;-78
2023/06/05 11:10:17;;;;;;;6.70;5.45;;;29.30;99.90;30.50;94241.00;;;;7385442;19;20157;-79
2023/06/05 11:12:45;;;;;;;6.88;5.05;;;29.40;99.90;30.40;94244.00;;;;7384868;19;20124;-79
2023/06/05 11:15:22;;;;;;;7.88;5.13;;;29.30;99.90;30.90;94237.00;;;;7383278;19;20158;-79
2023/06/05 11:17:50;;;;;;;9.80;4.80;;;29.40;99.90;30.10;94237.00;;;;7381573;19;20155;-79
2023/06/05 11:20:23;;;;;;;6.78;4.32;;;29.50;99.90;30.50;94234.00;;;;7383263;19;20607;-79
2023/06/05 11:22:56;;;;;;;4.95;4.15;;;29.80;99.90;30.80;94273.00;;;;7381422;19;20154;-77
2023/06/05 11:25:32;;;;;;;7.28;4.78;;;29.50;99.90;28.70;94285.00;;;;7383742;19;20140;-76
2023/06/05 11:28:11;;;;;;;6.15;4.80;;;29.00;99.90;26.70;94273.00;;;;7384267;19;20128;-78
2023/06/05 11:30:45;;;;;;;7.00;4.80;;;27.80;99.90;28.00;94216.00;;;;7387313;19;20159;-78